Felipe Correia

Recruteur en chef - Maritimo
2 Juil 2028
Dimanche
Processus

Personnalité

Adaptabilité (1) Ambition (17) Controverse (18) Loyauté (2) Pression (17) Professionnalisme (12) Sportivité (16) Tempérament (18)

Profil

Style d'entraînement Démocratique
Diplôme Continental C
Détermination 11
Gestion des joueurs 11
Motivation 10
Discipline 8
Satisfaction professionnelle
100%
Fatigue
0%
Rôle Recruteur en chef
Salaire 49.8K p/s
Contrat 14.03.2030

Performance

Comportement Bon
Efficacité de l'entraînement
40%
Développement des joueurs
35%
Prévention des blessures
35%
Mise en place tactique
35%

Événements récents

A participé à une réunion de recrutement maintenant
A participé à une réunion de recrutement maintenant
A recommandé une cible de transfert maintenant
A recommandé une cible de transfert maintenant
A recommandé une cible de transfert maintenant
A recommandé une cible de transfert 7j
A recommandé une cible de transfert 7j
A recommandé une cible de transfert 7j

Suivi en cours

187
Joueur Club Statut Capacité Confiance Observé Dernière observation Dernier vote
Walterson Pacos de Ferreira Rapport prêt 99 / 93 72% 1 26.06.2028 -
Joel Ezra Enyimba Actif 102 / 107 40% 4 12.06.2028 -
Paulinho Pacos de Ferreira Rapport prêt 97 / 87 72% 1 12.06.2028 -
Itumeleng Jali Spezia Actif 120 / 121 40% 1 12.06.2028 -
Ítalo Melo AVS Perdu 104 / 111 72% 1 01.06.2028 -
Simone Suppa Virtus Verona Actif 82 / 92 40% 1 31.05.2028 -
Andrea Cogoni Cosenza Actif 107 / 110 40% 1 31.05.2028 -
Jamie Wähling Hibernians Actif 82 / 100 40% 1 31.05.2028 -
Lamine Bèye Portimonense Actif 105 / 113 40% 2 28.05.2028 -
Trey Nyoni Rotherham United Actif 143 / 155 40% 1 28.05.2028 -
Luca Meirelles Kudrivka Actif 133 / 120 40% 8 27.05.2028 -
Edison Gruezo Guadalajara Actif 113 / 108 40% 1 27.05.2028 -
Rafael Camacho Sporting CP Actif 102 / 115 40% 6 26.05.2028 -
Romelle Donovan Brentford Actif 129 / 127 40% 2 26.05.2028 -
Andrija Bulatović Chamois Niortais Actif 129 / 133 40% 3 26.05.2028 -
Tyler Fletcher Rotherham United Actif 115 / 115 40% 2 25.05.2028 -
Leo Pecover Swindon Town Actif 102 / 100 40% 6 25.05.2028 -
Rodrigo Mora AC Milan Actif 139 / 156 40% 4 25.05.2028 -
Luca Williams-Barnett Walsall Actif 128 / 137 40% 4 24.05.2028 -
Bernardo Lima Porto Actif 111 / 128 40% 2 23.05.2028 -
Gabe Forsyth Colchester United Actif 112 / 116 40% 4 18.05.2028 -
Christos Mouzakitis Hull City Actif 137 / 139 40% 1 18.05.2028 -
Giovanni Cantizano Fulham Actif 123 / 120 40% 3 17.05.2028 -
Paulo Iago Sporting CP Actif 101 / 115 40% 6 17.05.2028 -
Ryan McAidoo Oldham Athletic Actif 126 / 133 40% 6 14.05.2028 -
Shea Lacey Crystal Palace Actif 132 / 138 40% 4 14.05.2028 -
Siyabonga Mabena Bidvest Wits Actif 119 / 141 40% 4 12.05.2028 -
Josh Nichols Oldham Athletic Actif 119 / 119 40% 6 12.05.2028 -
Amin Nabizada Exeter City Actif 111 / 112 40% 3 12.05.2028 -
Dânio Djassi Portimonense Actif 119 / 122 40% 5 11.05.2028 -
Rémi Himbert AC Ajaccio Actif 117 / 119 40% 2 11.05.2028 -
Ryan Kavuma-McQueen Accrington Stanley Actif 119 / 134 40% 2 11.05.2028 -
Tomás Peixoto Porto Actif 103 / 105 40% 2 09.05.2028 -
Noah Fernandez PSV Actif 120 / 129 40% 3 06.05.2028 -
Luke Brooke-Smith Chesterfield Actif 95 / 102 40% 1 05.05.2028 -
Landerson Moreirense Actif 113 / 120 40% 1 30.04.2028 -
İsak Vural Audace Cerignola Actif 126 / 119 40% 1 27.04.2028 -
Francisco Fernandes Porto Actif 104 / 98 40% 2 26.04.2028 -
Oscar Schwartau Norwich City Actif 132 / 134 40% 5 25.04.2028 -
Jake Evans Crewe Alexandra Actif 112 / 126 40% 6 23.04.2028 -
João Abreu Porto Actif 109 / 122 40% 4 22.04.2028 -
Ben Broggio Mansfield Town Actif 109 / 123 40% 3 22.04.2028 -
Rayan Demirci Porto Actif 91 / 98 40% 2 22.04.2028 -
Omar Khedr Gillingham Actif 115 / 127 40% 3 19.04.2028 -
Eduardo Fernandes Benfica Actif 124 / 131 40% 1 19.04.2028 -
Alphadjo Cissé Lecce Actif 131 / 133 40% 2 17.04.2028 -
Jamal Iddrissou Pergolettese Actif 109 / 121 40% 1 17.04.2028 -
Gomolemo Kekana Maritzburg United Actif 124 / 130 40% 3 16.04.2028 -
Kerim Alajbegović Modena Actif 129 / 137 40% 3 14.04.2028 -
Luighi Palmeiras Actif 111 / 115 40% 2 12.04.2028 -
Nicolas Sport Recife Actif 108 / 106 40% 3 10.04.2028 -
Amine Boukamir Charleroi Actif 100 / 106 40% 2 10.04.2028 -
Thulani Manyama SuperSport United Actif 118 / 108 40% 1 10.04.2028 -
Nathan De Cat SC Freiburg Actif 132 / 130 40% 1 10.04.2028 -
Fabiano Epicentr Actif 109 / 91 40% 2 07.04.2028 -
Ibrahim Fullah Charlton Athletic Actif 122 / 117 40% 1 05.04.2028 -
Peter Amidu Acquah Asante Kotoko Actif 100 / 110 40% 1 05.04.2028 -
Nana Nuhu WAFA Actif 94 / 88 40% 1 05.04.2028 -
Thijs Kraaijeveld USM Alger Actif 124 / 110 40% 1 03.04.2028 -
Matvey Bardachev Zenit Actif 103 / 108 40% 1 03.04.2028 -
Vinícius Lira São Paulo Actif 123 / 132 40% 5 01.04.2028 -
André Miranda Porto Actif 116 / 127 40% 2 30.03.2028 -
Igor Tyjon Barrow AFC Actif 119 / 113 40% 2 30.03.2028 -
Vlad Pacos de Ferreira Actif 100 / 115 40% 3 29.03.2028 -
Martim Cunha Porto Actif 114 / 114 40% 1 28.03.2028 -
Sidiki Chérif Newcastle United Actif 130 / 137 40% 1 27.03.2028 -
Henrique Carmo Sochi Actif 133 / 137 40% 1 22.03.2028 -
Alwande Booysen SuperSport United Actif 103 / 94 40% 1 20.03.2028 -
Gabriele Bertolini Vicenza Actif 100 / 110 40% 1 18.03.2028 -
Lwanda Mbanjwa Platinum Stars Actif 108 / 114 40% 1 17.03.2028 -
Lander Astiazarán Real Sociedad Actif 113 / 114 40% 1 15.03.2028 -
Christ Wawa Gefle Actif 104 / 115 40% 2 07.03.2028 -
Xavier Jodamus Jomo Cosmos Actif 84 / 74 40% 1 06.03.2028 -
Colin Guske Orlando City Actif 89 / 100 40% 1 01.02.2028 -
Matias Siltanen Malmo FF Actif 133 / 128 40% 1 01.02.2028 -
Daniel Banjaqui Benfica Actif 121 / 123 40% 1 01.02.2028 -
Matías Arias Vélez Actif 114 / 118 40% 3 10.01.2028 -
Jeremías Merlo Gimnasia La Plata Actif 129 / 127 40% 2 10.01.2028 -
Pedro Baltika Actif 146 / 129 40% 1 10.01.2028 -
Alex Verón Vélez Actif 117 / 123 40% 2 06.01.2028 -
Kiko Pereira Chaves Actif 93 / 93 72% 1 06.01.2028 Approuver
Luka Andrade Montevideo City Torque Actif 104 / 104 40% 1 06.01.2028 -
Mao Hosoya Santos Actif 134 / 135 67% 1 01.01.2028 Approuver
Alex Amaefula Kun Khalifat Actif 82 / 93 40% 2 26.11.2027 -
Victor Hernandez Santa Fe Actif 125 / 121 40% 2 26.11.2027 -
Nupe Godstime Bayelsa United Actif 92 / 86 40% 2 22.11.2027 -
Kaique Kenji Fortaleza Actif 120 / 125 40% 3 20.11.2027 -
Chimobi Igwilo Rangers International Actif 90 / 87 40% 1 20.11.2027 -
Léo Llaneros Actif 77 / 85 40% 2 18.11.2027 -
Albert Aleksanjan IFK Norrkoping Actif 96 / 86 40% 2 17.11.2027 -
Abdulrahman Hamisu Niger Tornadoes Actif 89 / 85 40% 1 17.11.2027 -
Hassan Beja AFC Leopards Actif 91 / 100 40% 2 16.11.2027 -
Idris Ajiya Nasarawa United Actif 89 / 86 40% 1 16.11.2027 -
Musa Malik Ikorodu City Actif 94 / 103 40% 2 14.11.2027 -
Lucas Camejo River Plate Actif 81 / 88 40% 2 10.11.2027 -
Juan Rodríguez Cerro Largo Actif 94 / 95 40% 1 08.11.2027 -
Emmanuel Ndubueze Shooting Stars Actif 94 / 85 40% 1 08.11.2027 -
Rafael Moreno Atletico Venezuela Actif 110 / 107 40% 1 08.11.2027 -
Mfundo Vilakazi Free State Stars Actif 124 / 141 40% 1 07.11.2027 -
David Eke Enyimba Actif 95 / 96 40% 1 05.11.2027 -
Giovanni Baroni Talleres Actif 111 / 119 40% 1 04.11.2027 -
Mustapha Umar Kano Pillars Actif 87 / 97 40% 1 04.11.2027 -
Bautista Carboni Defensores Unidos Actif 101 / 113 40% 1 03.11.2027 -
Mathias Kvistgaarden Norwich City Actif 126 / 127 40% 1 14.06.2027 -
Richard Koné Queens Park Rangers Actif 119 / 115 40% 1 14.06.2027 -
Scott Twine Bristol City Actif 122 / 122 40% 3 30.05.2027 -
Brooke Norton-Cuffy Hull City Actif 133 / 145 40% 3 30.05.2027 -
Lewis Bate Stockport County Actif 126 / 133 40% 1 30.05.2027 -
Harry Clarke Preston Actif 124 / 122 40% 4 27.05.2027 -
Derensili Sanches Fernandes Huddersfield Town Actif 126 / 134 40% 4 27.05.2027 -
Tomáš Rigo Stoke City Actif 125 / 135 40% 2 25.05.2027 -
Samuel Edozie Southampton Actif 128 / 136 40% 4 25.05.2027 -
Cian Ashford Cardiff City Actif 120 / 119 40% 5 24.05.2027 -
Ole Pohlmann Rio Ave Actif 122 / 127 40% 3 24.05.2027 -
Malik Mothersille Stockport County Actif 120 / 107 40% 1 24.05.2027 -
Jacques Ekomié Wrexham Actif 131 / 125 40% 2 20.05.2027 -
Martin Baturina Como Actif 136 / 134 40% 1 20.05.2027 -
Tyrese Campbell Sheffield United Actif 129 / 133 40% 5 16.05.2027 -
Jason Knight Bristol City Actif 132 / 138 40% 3 16.05.2027 -
Jack McGlynn Stoke City Actif 126 / 131 40% 1 15.05.2027 -
David Turnbull Cardiff City Actif 119 / 110 40% 1 15.05.2027 -
Florentino Luís Ipswich Town Actif 136 / 144 40% 3 12.05.2027 -
Joel Bagan Cardiff City Actif 110 / 108 40% 2 12.05.2027 -
Declan Frith Peterborough United Actif 107 / 104 40% 1 12.05.2027 -
Gustavo Silva Vitoria Guimaraes Actif 119 / 132 40% 2 11.05.2027 -
Toby Collyer West Bromwich Albion Actif 133 / 141 40% 1 10.05.2027 -
Lorougnon Gohi Académico de Viseu Actif 123 / 113 40% 3 07.05.2027 -
Jack Rudoni Coventry City Actif 132 / 124 40% 3 05.05.2027 -
Daniel Kyerewaa Reading Actif 112 / 107 40% 1 05.05.2027 -
Jackson Muleka Konyaspor Actif 122 / 121 40% 3 04.05.2027 -
Isaiah Jones Luton Town Actif 121 / 115 40% 4 02.05.2027 -
Tyreece Campbell Charlton Athletic Actif 120 / 129 40% 2 02.05.2027 -
Bongani Zungu Ajax Cape Town Actif 136 / 133 40% 3 01.05.2027 -
Juan Bezerra Zamalek Actif 123 / 110 40% 5 01.05.2027 -
Dale Taylor Blackpool Actif 114 / 110 40% 3 30.04.2027 -
Rafik Guitane Estoril Praia Actif 133 / 127 40% 4 30.04.2027 -
Ar'jany Martha Rotherham United Actif 116 / 107 40% 2 28.04.2027 -
Joe Gelhardt Hull City Actif 140 / 137 40% 4 27.04.2027 -
Aidan Morris Middlesbrough Actif 128 / 136 40% 1 27.04.2027 -
Bobby Clark Derby County Actif 120 / 123 40% 3 24.04.2027 -
Yanis Begraoui Estoril Praia Actif 140 / 130 40% 2 23.04.2027 -
Welington Southampton Actif 127 / 126 40% 2 23.04.2027 -
Finn Azaz Southampton Actif 128 / 135 40% 4 20.04.2027 -
Bosun Lawal Stoke City Actif 134 / 132 40% 1 20.04.2027 -
Manu Pozo Torreense Actif 125 / 115 40% 1 19.04.2027 -
Oliver Skipp Leicester City Actif 126 / 130 40% 1 17.04.2027 -
Mohamed-Ali Cho Hull City Actif 135 / 143 40% 2 14.04.2027 -
Santi García Gil Vicente Actif 130 / 142 40% 3 12.04.2027 -
Koki Saito Queens Park Rangers Actif 127 / 130 40% 1 11.04.2027 -
Alex Robertson Cardiff City Actif 120 / 120 40% 2 08.04.2027 -
Kwadwo Baah Watford Actif 127 / 136 40% 2 07.04.2027 -
João Mendes Vitoria Guimaraes Actif 116 / 120 40% 1 06.04.2027 -
Ilias Sebaoui Sint-Truiden Actif 122 / 124 40% 2 01.04.2027 -
Marcelo Allende Mamelodi Sundowns Actif 135 / 130 40% 2 29.03.2027 -
Max Bird Birmingham Actif 131 / 126 40% 2 29.03.2027 -
Ali Ahmed Norwich City Actif 126 / 129 40% 1 29.03.2027 -
Andre Brooks Sheffield United Actif 130 / 126 40% 4 27.03.2027 -
Ilyas Ansah Hull City Actif 133 / 134 40% 3 24.03.2027 -
Lee Hyun-Ju Arouca Actif 120 / 118 40% 1 24.03.2027 -
Mateja Stjepanović Moreirense Actif 125 / 132 40% 1 20.03.2027 -
Milan van Ewijk Coventry City Actif 128 / 133 40% 1 20.03.2027 -
Malik Sellouki Rio Ave Actif 114 / 120 40% 2 13.03.2027 -
Peter Federico Gornik Zabrze Actif 135 / 125 40% 1 13.03.2027 -
Gianluca Prestianni Benfica Actif 134 / 149 40% 2 08.03.2027 -
Tomás Pérez Porto Actif 113 / 130 72% 1 25.01.2027 Approuver
Sampson Dweh Mallorca Actif 133 / 134 66% 1 01.01.2027 Approuver
Jefry Zapata Aldosivi Actif 118 / 118 66% 1 01.01.2027 Approuver
Lucas Varaldo Morelia Actif 126 / 119 40% 1 25.12.2026 -
Sam Greenwood Bristol City Actif 115 / 130 40% 1 24.12.2026 -
Justo Giani Umraniyespor Actif 127 / 109 40% 2 21.12.2026 -
Sorriso Famalicao Actif 123 / 136 40% 2 19.12.2026 -
Fiete Arp OB Actif 138 / 114 40% 1 17.12.2026 -
Rocco Vata Watford Actif 114 / 138 40% 1 16.12.2026 -
Giorgi Kvernadze Frosinone Actif 123 / 116 40% 1 16.12.2026 -
Tamble Monteiro Rio Ave Actif 116 / 109 40% 1 13.12.2026 Plus d'infos
Veljko Radosavljević Cukaricki Actif 91 / 111 40% 1 13.12.2026 -
Caleb Yirenkyi Coventry City Actif 129 / 143 40% 1 13.12.2026 -
Vinícius Lopes Santa Clara Actif 122 / 123 40% 1 10.12.2026 -
Patrick Agyemang Derby County Actif 119 / 123 40% 1 10.12.2026 -
Yousef Salech Cardiff City Actif 133 / 135 40% 1 10.12.2026 -
Ethan Williams Peterborough United Actif 117 / 119 40% 1 10.12.2026 -
Eddie Nketiah Crystal Palace Actif 135 / 142 40% 1 08.12.2026 -
Jacques Siwe Rubin Actif 105 / 120 40% 1 07.12.2026 -
Robert FC Copenhagen Actif 114 / 120 40% 1 17.08.2026 -
Carlos Vinícius Grêmio Actif 134 / 129 40% 1 01.08.2026 -
Kyle Wootton Stockport County Actif 125 / 107 40% 1 01.08.2026 -
Ezequiel Ponce Elche Actif 134 / 135 40% 1 01.08.2026 -